createdAt,value
2018-11-23T00:00:02.322Z,20.50
2018-11-23T00:05:06.501Z,18.50
2018-11-23T00:10:12.425Z,20.93
2018-11-23T00:15:20.815Z,18.50
2018-11-23T00:20:27.154Z,17.97
2018-11-23T00:25:37.589Z,19.70
2018-11-23T00:30:41.722Z,18.30
2018-11-23T00:35:45.824Z,17.13
2018-11-23T00:40:49.930Z,18.57
2018-11-23T00:45:54.038Z,21.60
2018-11-23T00:50:58.153Z,19.97
2018-11-23T00:56:02.295Z,19.17
2018-11-23T01:01:06.489Z,17.60
2018-11-23T01:06:10.614Z,18.90
2018-11-23T01:11:14.841Z,19.13
2018-11-23T01:16:18.995Z,18.20
2018-11-23T01:21:23.158Z,18.63
2018-11-23T01:26:27.301Z,18.87
2018-11-23T01:31:31.446Z,21.53
2018-11-23T01:36:35.637Z,20.20
2018-11-23T01:41:40.090Z,19.20
2018-11-23T01:46:44.197Z,19.10
2018-11-23T01:51:48.315Z,19.50
2018-11-23T01:56:52.434Z,19.90
2018-11-23T02:01:56.542Z,20.10
2018-11-23T02:07:00.649Z,20.47
2018-11-23T02:12:04.810Z,19.17
2018-11-23T02:17:08.948Z,17.47
2018-11-23T02:22:13.073Z,18.37
2018-11-23T02:27:17.490Z,19.97
2018-11-23T02:32:21.735Z,19.10
2018-11-23T02:37:25.872Z,18.17
2018-11-23T02:42:30.049Z,19.83
2018-11-23T02:47:34.182Z,19.63
2018-11-23T02:52:38.665Z,17.53
2018-11-23T02:57:42.790Z,20.47
2018-11-23T03:02:46.967Z,20.03
2018-11-23T03:07:51.104Z,19.27
2018-11-23T03:12:55.218Z,17.73
2018-11-23T03:17:59.430Z,19.83
2018-11-23T03:23:03.538Z,19.67
2018-11-23T03:28:07.679Z,21.23
2018-11-23T03:33:11.785Z,20.03
2018-11-23T03:38:15.895Z,17.03
2018-11-23T03:43:20.008Z,16.40
2018-11-23T03:48:24.107Z,18.87
2018-11-23T03:53:28.222Z,19.60
2018-11-23T03:58:32.406Z,18.03
2018-11-23T04:03:36.518Z,17.53
2018-11-23T04:08:40.667Z,18.90
2018-11-23T04:13:44.810Z,20.37
2018-11-23T04:18:48.918Z,20.87
2018-11-23T04:23:53.195Z,19.30
2018-11-23T04:28:57.354Z,19.97
2018-11-23T04:34:01.463Z,20.13
2018-11-23T04:39:07.538Z,19.50
2018-11-23T04:44:11.663Z,20.57
2018-11-23T04:49:15.791Z,21.13
2018-11-23T04:54:19.891Z,19.87
2018-11-23T04:59:23.994Z,14.67
2018-11-23T05:04:28.196Z,21.23
2018-11-23T05:09:32.298Z,19.00
2018-11-23T05:14:36.470Z,21.57
2018-11-23T05:19:40.657Z,21.03
2018-11-23T05:24:44.826Z,20.77
2018-11-23T05:29:49.080Z,20.87
2018-11-23T05:34:53.191Z,22.53
2018-11-23T05:39:57.354Z,20.37
2018-11-23T05:45:01.477Z,21.17
2018-11-23T05:50:08.055Z,22.00
2018-11-23T05:55:12.542Z,17.73
2018-11-23T06:00:23.072Z,20.57
2018-11-23T06:05:27.202Z,22.17
2018-11-23T06:10:30.991Z,18.90
2018-11-23T06:15:35.007Z,19.80
2018-11-23T06:20:39.111Z,21.63
2018-11-23T06:25:45.547Z,13.37
2018-11-23T06:30:49.361Z,19.33
2018-11-23T06:35:53.379Z,20.57
2018-11-23T06:40:57.510Z,16.00
2018-11-23T06:46:02.554Z,21.63
2018-11-23T06:51:07.050Z,21.67
2018-11-23T06:56:11.182Z,22.97
2018-11-23T07:01:15.318Z,23.67
2018-11-23T07:06:19.510Z,22.63
2018-11-23T07:11:23.623Z,20.63
2018-11-23T07:16:27.748Z,21.93
2018-11-23T07:21:31.894Z,20.70
2018-11-23T07:26:36.015Z,20.20
2018-11-23T07:31:40.182Z,18.57
2018-11-23T07:36:44.311Z,19.20
2018-11-23T07:41:59.740Z,19.70
2018-11-23T07:47:03.537Z,12.40
2018-11-23T07:52:07.883Z,18.43
2018-11-23T07:57:12.126Z,18.13
2018-11-23T08:02:16.246Z,19.73
2018-11-23T08:07:21.158Z,17.73
2018-11-23T08:12:24.702Z,17.37
2018-11-23T08:17:28.826Z,19.97
2018-11-23T08:22:32.953Z,17.23
2018-11-23T08:27:37.311Z,21.37
2018-11-23T08:32:41.514Z,20.30
2018-11-23T08:37:45.668Z,17.40
2018-11-23T08:42:50.569Z,20.97
2018-11-23T08:47:54.678Z,21.87
2018-11-23T08:52:58.559Z,18.53
2018-11-23T08:58:02.591Z,17.83
2018-11-23T09:03:06.795Z,20.63
2018-11-23T09:08:10.919Z,17.30
2018-11-23T09:13:14.785Z,14.13
2018-11-23T09:18:18.887Z,19.80
2018-11-23T09:23:23.280Z,22.67
2018-11-23T09:28:27.070Z,19.20
2018-11-23T09:33:31.099Z,22.87
2018-11-23T09:38:35.199Z,19.37
2018-11-23T09:43:39.326Z,20.03
2018-11-23T09:48:43.438Z,17.73
2018-11-23T09:53:47.579Z,22.40
2018-11-23T09:58:51.414Z,20.03
2018-11-23T10:03:55.494Z,19.10
2018-11-23T10:08:59.580Z,18.13
2018-11-23T10:14:03.742Z,18.83
2018-11-23T10:19:10.958Z,20.27
2018-11-23T10:24:15.149Z,15.20
2018-11-23T10:29:19.113Z,20.33
2018-11-23T10:34:22.843Z,18.27
2018-11-23T10:39:26.970Z,17.20
2018-11-23T10:44:31.103Z,17.40
2018-11-23T10:49:35.358Z,17.90
2018-11-23T10:54:39.243Z,16.57
2018-11-23T10:59:43.309Z,20.37
2018-11-23T11:04:52.579Z,18.97
2018-11-23T11:09:56.791Z,19.17
2018-11-23T11:15:00.614Z,18.77
2018-11-23T11:20:04.402Z,17.00
2018-11-23T11:25:09.570Z,15.00
2018-11-23T11:30:15.622Z,16.77
2018-11-23T11:35:19.818Z,17.30
2018-11-23T11:40:23.966Z,16.77
2018-11-23T11:45:28.091Z,17.23
2018-11-23T11:50:32.287Z,14.80
2018-11-23T11:55:36.405Z,14.80
2018-11-23T12:00:40.530Z,14.13
2018-11-23T12:05:44.656Z,14.07
2018-11-23T12:10:48.777Z,15.20
2018-11-23T12:15:52.883Z,12.80
2018-11-23T12:20:56.709Z,13.03
2018-11-23T12:26:00.495Z,12.57
2018-11-23T12:31:04.265Z,15.27
2018-11-23T12:36:08.303Z,14.17
2018-11-23T12:41:12.273Z,16.47
2018-11-23T12:46:16.487Z,14.67
2018-11-23T12:51:20.681Z,15.13
2018-11-23T12:56:24.385Z,17.30
2018-11-23T13:01:28.093Z,17.27
2018-11-23T13:06:31.798Z,16.83
2018-11-23T13:11:39.596Z,15.57
2018-11-23T13:16:43.698Z,12.90
2018-11-23T13:21:47.491Z,14.37
2018-11-23T13:26:51.217Z,15.73
2018-11-23T13:31:55.797Z,14.47
2018-11-23T13:37:00.067Z,14.57
2018-11-23T13:42:04.420Z,16.70
2018-11-23T13:47:08.631Z,15.30
2018-11-23T13:52:12.727Z,13.87
2018-11-23T13:57:16.842Z,15.40
2018-11-23T14:02:21.219Z,19.03
2018-11-23T14:07:25.446Z,14.90
2018-11-23T14:12:29.295Z,14.60
2018-11-23T14:17:33.345Z,16.30
2018-11-23T14:22:37.742Z,16.13
2018-11-23T14:27:42.265Z,16.40
2018-11-23T14:32:46.611Z,17.50
2018-11-23T14:37:51.478Z,15.33
2018-11-23T14:42:56.014Z,15.17
2018-11-23T14:48:03.282Z,13.67
2018-11-23T14:53:07.343Z,15.93
2018-11-23T14:58:11.543Z,15.23
2018-11-23T15:03:15.654Z,15.63
2018-11-23T15:08:20.010Z,17.27
2018-11-23T15:13:24.267Z,16.63
2018-11-23T15:18:28.547Z,15.97
2018-11-23T15:23:32.336Z,14.37
2018-11-23T15:28:36.382Z,13.70
2018-11-23T15:33:41.435Z,16.03
2018-11-23T15:38:45.263Z,17.10
2018-11-23T15:43:49.679Z,17.00
2018-11-23T15:48:53.485Z,17.53
2018-11-23T15:53:57.568Z,17.33
2018-11-23T15:59:01.369Z,17.10
2018-11-23T16:04:05.491Z,18.13
2018-11-23T16:09:12.752Z,16.50
2018-11-23T16:14:16.940Z,17.90
2018-11-23T16:19:20.785Z,17.53
2018-11-23T16:24:24.478Z,21.90
2018-11-23T16:29:28.634Z,19.50
2018-11-23T16:34:32.638Z,20.27
2018-11-23T16:39:36.634Z,18.23
2018-11-23T16:44:41.016Z,16.37
2018-11-23T16:49:45.473Z,17.83
2018-11-23T16:54:50.160Z,17.77
2018-11-23T16:59:54.889Z,18.43
2018-11-23T17:04:59.041Z,17.93
2018-11-23T17:10:03.470Z,19.63
2018-11-23T17:15:08.233Z,18.30
2018-11-23T17:20:14.653Z,19.23
2018-11-23T17:25:20.429Z,16.80
2018-11-23T17:30:26.732Z,17.33
2018-11-23T17:35:30.876Z,17.57
2018-11-23T17:40:37.871Z,17.07
2018-11-23T17:45:42.336Z,16.67
2018-11-23T17:50:46.809Z,17.07
2018-11-23T17:55:51.140Z,16.87
2018-11-23T18:00:55.553Z,15.47
2018-11-23T18:06:00.022Z,18.73
2018-11-23T18:11:04.123Z,18.17
2018-11-23T18:16:08.544Z,20.50
2018-11-23T18:21:13.208Z,18.13
2018-11-23T18:26:17.678Z,18.53
2018-11-23T18:31:22.199Z,17.63
2018-11-23T18:36:26.177Z,17.53
2018-11-23T18:41:30.537Z,18.97
2018-11-23T18:46:34.645Z,18.17
2018-11-23T18:51:39.034Z,18.87
2018-11-23T18:56:43.972Z,18.37
2018-11-23T19:01:48.138Z,18.03
2018-11-23T19:06:52.835Z,23.60
2018-11-23T19:11:56.669Z,17.93
2018-11-23T19:17:00.366Z,18.93
2018-11-23T19:22:04.827Z,21.57
2018-11-23T19:27:08.785Z,18.67
2018-11-23T19:32:13.296Z,18.93
2018-11-23T19:37:17.816Z,19.63
2018-11-23T19:42:21.806Z,19.73
2018-11-23T19:47:26.102Z,19.13
2018-11-23T19:52:30.728Z,20.43
2018-11-23T19:57:34.791Z,19.57
2018-11-23T20:02:39.163Z,16.83
2018-11-23T20:07:44.253Z,17.73
2018-11-23T20:12:49.861Z,16.97
2018-11-23T20:17:54.454Z,17.17
2018-11-23T20:22:58.778Z,19.10
2018-11-23T20:28:03.243Z,17.17
2018-11-23T20:33:07.985Z,17.87
2018-11-23T20:38:12.457Z,17.30
2018-11-23T20:43:16.990Z,17.07
2018-11-23T20:48:21.589Z,16.30
2018-11-23T20:53:26.088Z,14.47
2018-11-23T20:58:30.152Z,18.20
2018-11-23T21:03:34.639Z,16.67
2018-11-23T21:08:39.278Z,15.77
2018-11-23T21:13:43.739Z,15.27
2018-11-23T21:18:48.249Z,16.30
2018-11-23T21:23:52.798Z,16.43
2018-11-23T21:28:57.199Z,15.33
2018-11-23T21:34:01.827Z,15.10
2018-11-23T21:39:13.750Z,15.60
2018-11-23T21:44:14.033Z,15.67
2018-11-23T21:49:18.513Z,15.00
2018-11-23T21:54:23.023Z,13.53
2018-11-23T21:59:27.540Z,13.03
2018-11-23T22:04:32.114Z,12.87
2018-11-23T22:09:36.597Z,12.07
2018-11-23T22:14:41.065Z,13.23
2018-11-23T22:19:45.102Z,15.20
2018-11-23T22:24:49.456Z,14.73
2018-11-23T22:29:54.008Z,15.77
2018-11-23T22:34:58.505Z,16.40
2018-11-23T22:40:03.025Z,16.37
2018-11-23T22:45:09.660Z,15.80
2018-11-23T22:50:21.586Z,15.93
2018-11-23T22:55:25.747Z,14.67
2018-11-23T23:00:35.610Z,15.50
2018-11-23T23:05:42.466Z,15.33
2018-11-23T23:10:43.990Z,14.63
2018-11-23T23:15:48.148Z,14.90
2018-11-23T23:20:52.662Z,13.83
2018-11-23T23:25:56.881Z,14.77
2018-11-23T23:31:01.026Z,12.50
2018-11-23T23:36:05.179Z,13.37
2018-11-23T23:41:09.292Z,11.77
2018-11-23T23:46:13.423Z,11.77
2018-11-23T23:51:17.624Z,13.17
2018-11-23T23:56:21.692Z,11.43
